KFYJ Airport Information

Runway Information
Runway 10 Length 5000 ft width 75 ft
Elevation 12 ft Threshold 0 ft Heading 86
Runway 28 Length 5000 ft Width 75 ft
Elevation 20 ft Threshold 0 ft Heading 266
Airport Frequencies
Type A/D Name POTOMAC AP Frequency 126.4 MHZ
Type AWOS Name AWOS 3 Frequency 132.825 MHZ
Type RDO Name LEESBURG R Frequency 108.8 MHZ
Type UNIC Name CTAF/UNICO Frequency 123 MHZ
Airport Navaids
Airport Weather Information & NOTAM
ADDS - METARS form results

(2344 UTC 01 December 2021)
Data provider http://aviationweather.gov/metar/data/
 
METAR text: KFYJ 012335Z AUTO 12003KT 10SM 09/04 A3014 RMK AO1 T00880038
Conditions at: KFYJ (WEST POINT , VA, US) observed 2335 UTC 01 December 2021
Temperature: 8.8°C (48°F)
Dewpoint: 3.8°C (39°F) [RH = 71%]
Pressure (altimeter): 30.14 inches Hg (1020.7 mb)
Winds: from the ESE (120 degrees) at 3 MPH (3 knots; 1.5 m/s)
Visibility: 10 or more miles (16+ km)
Ceiling: unknown
Clouds: missing
Weather: automated observation with no human augmentation;
there may or may not be significant weather present at this time

METAR text: KFYJ 012315Z AUTO 13003KT 10SM 09/04 A3014 RMK AO1 T00920038
Conditions at: KFYJ (WEST POINT , VA, US) observed 2315 UTC 01 December 2021
Temperature: 9.2°C (49°F)
Dewpoint: 3.8°C (39°F) [RH = 69%]
Pressure (altimeter): 30.14 inches Hg (1020.7 mb)
Winds: from the SE (130 degrees) at 3 MPH (3 knots; 1.5 m/s)
Visibility: 10 or more miles (16+ km)
Ceiling: unknown
Clouds: missing
Weather: automated observation with no human augmentation;
there may or may not be significant weather present at this time

METAR text: KFYJ 012255Z AUTO 12003KT 10SM 09/03 A3014 RMK AO1 T00930033
Conditions at: KFYJ (WEST POINT , VA, US) observed 2255 UTC 01 December 2021
Temperature: 9.3°C (49°F)
Dewpoint: 3.3°C (38°F) [RH = 66%]
Pressure (altimeter): 30.14 inches Hg (1020.7 mb)
Winds: from the ESE (120 degrees) at 3 MPH (3 knots; 1.5 m/s)
Visibility: 10 or more miles (16+ km)
Ceiling: unknown
Clouds: missing
Weather: automated observation with no human augmentation;
there may or may not be significant weather present at this time